createdAt,value
2023-05-12T00:01:22.292Z,11.50
2023-05-12T00:03:53.834Z,11.37
2023-05-12T00:06:22.250Z,12.57
2023-05-12T00:08:51.814Z,11.23
2023-05-12T00:11:20.050Z,12.87
2023-05-12T00:13:47.926Z,11.60
2023-05-12T00:16:18.958Z,10.67
2023-05-12T00:18:46.920Z,11.20
2023-05-12T00:21:16.804Z,11.53
2023-05-12T00:23:45.223Z,10.10
2023-05-12T00:26:13.037Z,9.87
2023-05-12T00:28:40.878Z,10.53
2023-05-12T00:31:08.661Z,8.60
2023-05-12T00:33:36.572Z,9.83
2023-05-12T00:36:05.550Z,8.60
2023-05-12T00:38:37.377Z,8.00
2023-05-12T00:41:05.424Z,7.17
2023-05-12T00:43:33.857Z,7.47
2023-05-12T00:46:03.503Z,7.10
2023-05-12T00:48:31.967Z,7.03
2023-05-12T00:51:01.789Z,7.10
2023-05-12T00:53:41.087Z,6.83
2023-05-12T00:56:18.201Z,7.30
2023-05-12T00:58:47.365Z,7.23
2023-05-12T01:01:15.714Z,7.30
2023-05-12T01:03:43.811Z,7.03
2023-05-12T01:06:16.926Z,8.37
2023-05-12T01:08:46.082Z,7.27
2023-05-12T01:11:14.046Z,6.10
2023-05-12T01:13:43.764Z,6.43
2023-05-12T01:16:18.676Z,6.40
2023-05-12T01:18:51.590Z,5.40
2023-05-12T01:21:19.680Z,5.27
2023-05-12T01:23:57.925Z,5.20
2023-05-12T01:26:29.956Z,5.03
2023-05-12T01:28:58.972Z,5.10
2023-05-12T01:31:27.462Z,3.83
2023-05-12T01:33:55.639Z,4.63
2023-05-12T01:36:23.566Z,4.30
2023-05-12T01:38:51.337Z,3.90
2023-05-12T01:41:19.124Z,3.83
2023-05-12T01:43:48.471Z,3.40
2023-05-12T01:46:17.227Z,3.40
2023-05-12T01:48:45.221Z,3.67
2023-05-12T01:51:14.122Z,3.70
2023-05-12T01:53:42.256Z,3.50
2023-05-12T01:56:10.235Z,3.60
2023-05-12T01:58:38.051Z,3.30
2023-05-12T02:01:07.958Z,3.30
2023-05-12T02:03:38.120Z,3.00
2023-05-12T02:06:06.632Z,3.03
2023-05-12T02:08:34.433Z,3.10
2023-05-12T02:11:07.282Z,2.80
2023-05-12T02:13:35.767Z,2.80
2023-05-12T02:16:04.010Z,2.87
2023-05-12T02:18:33.683Z,2.80
2023-05-12T02:21:01.378Z,2.83
2023-05-12T02:23:30.728Z,2.97
2023-05-12T02:25:58.710Z,2.73
2023-05-12T02:28:26.448Z,2.40
2023-05-12T02:30:54.974Z,3.10
2023-05-12T02:33:23.254Z,2.90
2023-05-12T02:35:52.543Z,2.80
2023-05-12T02:38:20.332Z,2.30
2023-05-12T02:40:48.607Z,2.80
2023-05-12T02:43:16.324Z,2.80
2023-05-12T02:45:44.356Z,2.47
2023-05-12T02:48:13.253Z,2.60
2023-05-12T02:50:41.221Z,2.57
2023-05-12T02:53:10.760Z,2.40
2023-05-12T02:55:39.677Z,2.30
2023-05-12T02:58:07.463Z,2.50
2023-05-12T03:00:35.215Z,2.47
2023-05-12T03:03:03.306Z,2.20
2023-05-12T03:05:31.272Z,2.40
2023-05-12T03:08:00.144Z,2.37
2023-05-12T03:10:30.114Z,2.30
2023-05-12T03:12:57.904Z,2.13
2023-05-12T03:15:25.612Z,2.47
2023-05-12T03:17:53.318Z,2.20
2023-05-12T03:20:22.362Z,2.80
2023-05-12T03:22:50.677Z,2.20
2023-05-12T03:25:18.641Z,2.67
2023-05-12T03:27:48.190Z,2.50
2023-05-12T03:30:16.072Z,2.00
2023-05-12T03:32:45.253Z,2.50
2023-05-12T03:35:14.476Z,2.47
2023-05-12T03:37:42.162Z,2.33
2023-05-12T03:40:11.584Z,1.80
2023-05-12T03:42:39.392Z,2.07
2023-05-12T03:45:10.363Z,2.03
2023-05-12T03:47:40.675Z,2.20
2023-05-12T03:50:09.432Z,2.20
2023-05-12T03:52:38.646Z,2.27
2023-05-12T03:55:07.481Z,2.20
2023-05-12T03:57:36.648Z,2.17
2023-05-12T04:00:06.036Z,2.67
2023-05-12T04:02:35.739Z,2.47
2023-05-12T04:05:04.174Z,2.00
2023-05-12T04:07:32.446Z,2.20
2023-05-12T04:10:01.231Z,2.00
2023-05-12T04:12:29.257Z,2.50
2023-05-12T04:14:57.584Z,2.03
2023-05-12T04:17:25.535Z,2.50
2023-05-12T04:19:55.364Z,2.20
2023-05-12T04:22:25.559Z,2.23
2023-05-12T04:24:53.540Z,2.20
2023-05-12T04:27:21.304Z,2.07
2023-05-12T04:29:49.053Z,2.20
2023-05-12T04:32:18.031Z,2.00
2023-05-12T04:34:45.696Z,1.90
2023-05-12T04:37:14.850Z,2.20
2023-05-12T04:39:42.877Z,2.00
2023-05-12T04:42:10.703Z,2.07
2023-05-12T04:44:39.161Z,2.40
2023-05-12T04:47:07.356Z,2.20
2023-05-12T04:49:35.329Z,2.20
2023-05-12T04:52:06.001Z,2.17
2023-05-12T04:54:36.892Z,2.03
2023-05-12T04:57:05.415Z,2.50
2023-05-12T04:59:33.065Z,2.03
2023-05-12T05:02:02.195Z,2.10
2023-05-12T05:04:31.731Z,2.03
2023-05-12T05:06:59.416Z,2.03
2023-05-12T05:09:27.279Z,1.77
2023-05-12T05:11:56.812Z,2.30
2023-05-12T05:14:24.531Z,1.83
2023-05-12T05:16:52.304Z,2.10
2023-05-12T05:19:25.744Z,1.93
2023-05-12T05:21:57.800Z,2.27
2023-05-12T05:24:26.729Z,2.10
2023-05-12T05:26:56.044Z,1.90
2023-05-12T05:29:23.930Z,1.93
2023-05-12T05:31:52.551Z,2.27
2023-05-12T05:34:22.001Z,1.70
2023-05-12T05:36:49.784Z,2.00
2023-05-12T05:39:18.288Z,1.97
2023-05-12T05:41:45.972Z,2.00
2023-05-12T05:44:15.270Z,1.90
2023-05-12T05:46:45.005Z,1.93
2023-05-12T05:49:13.019Z,1.90
2023-05-12T05:51:41.280Z,1.70
2023-05-12T05:54:09.114Z,1.80
2023-05-12T05:56:39.160Z,2.10
2023-05-12T05:59:07.395Z,1.60
2023-05-12T06:01:36.668Z,1.90
2023-05-12T06:04:05.615Z,2.00
2023-05-12T06:06:33.394Z,1.70
2023-05-12T06:09:03.458Z,2.00
2023-05-12T06:11:31.247Z,1.90
2023-05-12T06:13:58.883Z,1.77
2023-05-12T06:16:26.737Z,1.90
2023-05-12T06:18:56.414Z,1.73
2023-05-12T06:21:24.177Z,1.90
2023-05-12T06:23:52.489Z,1.87
2023-05-12T06:26:21.084Z,1.80
2023-05-12T06:28:50.423Z,1.80
2023-05-12T06:31:18.163Z,2.13
2023-05-12T06:33:46.124Z,2.00
2023-05-12T06:36:15.329Z,2.03
2023-05-12T06:38:43.021Z,1.77
2023-05-12T06:41:11.575Z,1.90
2023-05-12T06:43:40.908Z,1.83
2023-05-12T06:46:08.771Z,1.80
2023-05-12T06:48:36.916Z,1.87
2023-05-12T06:51:05.301Z,1.90
2023-05-12T06:53:37.663Z,1.90
2023-05-12T06:56:06.649Z,1.67
2023-05-12T06:58:34.442Z,1.80
2023-05-12T07:01:02.354Z,2.00
2023-05-12T07:03:33.703Z,1.77
2023-05-12T07:06:01.488Z,1.70
2023-05-12T07:08:29.608Z,1.83
2023-05-12T07:11:00.993Z,1.80
2023-05-12T07:13:28.964Z,1.83
2023-05-12T07:15:58.426Z,1.60
2023-05-12T07:18:26.637Z,1.67
2023-05-12T07:20:55.659Z,1.90
2023-05-12T07:23:23.454Z,1.73
2023-05-12T07:25:51.681Z,1.50
2023-05-12T07:28:21.622Z,1.30
2023-05-12T07:30:49.616Z,1.40
2023-05-12T07:33:17.680Z,1.60
2023-05-12T07:35:45.908Z,1.80
2023-05-12T07:38:16.923Z,1.60
2023-05-12T07:40:45.725Z,1.60
2023-05-12T07:43:13.746Z,1.53
2023-05-12T07:45:43.286Z,1.50
2023-05-12T07:48:11.773Z,1.70
2023-05-12T07:50:43.428Z,1.60
2023-05-12T07:53:11.372Z,1.80
2023-05-12T07:55:39.396Z,1.70
2023-05-12T07:58:07.599Z,1.50
2023-05-12T08:00:35.608Z,1.80
2023-05-12T08:03:06.132Z,1.50
2023-05-12T08:05:34.756Z,1.50
2023-05-12T08:08:02.614Z,1.60
2023-05-12T08:10:32.667Z,1.40
2023-05-12T08:13:00.357Z,1.67
2023-05-12T08:15:29.798Z,1.40
2023-05-12T08:17:57.739Z,1.60
2023-05-12T08:20:26.914Z,1.60
2023-05-12T08:22:54.970Z,1.70
2023-05-12T08:25:23.730Z,1.60
2023-05-12T08:27:51.610Z,1.50
2023-05-12T08:30:23.921Z,1.80
2023-05-12T08:32:51.781Z,1.50
2023-05-12T08:35:20.591Z,1.50
2023-05-12T08:37:49.927Z,1.60
2023-05-12T08:40:22.553Z,1.70
2023-05-12T08:42:57.306Z,1.67
2023-05-12T08:45:26.817Z,1.60
2023-05-12T08:47:55.858Z,1.93
2023-05-12T08:50:24.765Z,1.70
2023-05-12T08:52:54.991Z,2.10
2023-05-12T08:55:27.407Z,1.90
2023-05-12T08:57:58.316Z,2.27
2023-05-12T09:00:26.766Z,1.83
2023-05-12T09:02:56.642Z,2.33
2023-05-12T09:05:28.005Z,2.47
2023-05-12T09:07:57.827Z,2.00
2023-05-12T09:10:35.052Z,2.30
2023-05-12T09:13:08.022Z,2.60
2023-05-12T09:15:39.463Z,2.20
2023-05-12T09:18:08.758Z,1.93
2023-05-12T09:20:36.755Z,2.00
2023-05-12T09:23:15.736Z,1.80
2023-05-12T09:25:43.597Z,2.00
2023-05-12T09:28:11.688Z,1.87
2023-05-12T09:30:42.414Z,1.97
2023-05-12T09:33:12.528Z,2.40
2023-05-12T09:35:43.904Z,2.23
2023-05-12T09:38:15.567Z,2.10
2023-05-12T09:40:45.165Z,2.00
2023-05-12T09:43:15.306Z,2.10
2023-05-12T09:45:44.310Z,2.10
2023-05-12T09:48:14.372Z,1.97
2023-05-12T09:50:48.501Z,1.97
2023-05-12T09:53:19.457Z,2.23
2023-05-12T09:55:49.194Z,1.70
2023-05-12T09:58:22.044Z,2.00
2023-05-12T10:03:29.525Z,2.00
2023-05-12T10:06:18.480Z,3.30
2023-05-12T10:09:15.880Z,1.80
2023-05-12T10:11:50.079Z,1.93
2023-05-12T10:14:20.104Z,1.93
2023-05-12T10:16:47.831Z,1.70
2023-05-12T10:19:17.624Z,2.40
2023-05-12T10:21:51.844Z,2.20
2023-05-12T10:24:23.183Z,2.03
2023-05-12T10:26:51.301Z,2.20
2023-05-12T10:29:19.539Z,1.70
2023-05-12T10:31:49.131Z,1.97
2023-05-12T10:34:18.611Z,1.90
2023-05-12T10:36:50.449Z,1.87
2023-05-12T10:39:19.455Z,1.90
2023-05-12T10:41:51.006Z,1.70
2023-05-12T10:44:28.001Z,1.80
2023-05-12T10:47:01.033Z,1.90
2023-05-12T10:49:37.540Z,2.20
2023-05-12T10:52:09.427Z,1.97
2023-05-12T10:54:44.682Z,1.80
2023-05-12T10:57:21.587Z,1.90
2023-05-12T10:59:53.129Z,2.20
2023-05-12T11:02:26.298Z,2.00
2023-05-12T11:04:58.278Z,2.00
2023-05-12T11:07:30.671Z,2.10
2023-05-12T11:10:05.341Z,2.23
2023-05-12T11:12:37.536Z,2.37
2023-05-12T11:15:07.349Z,2.23
2023-05-12T11:17:38.251Z,2.17
2023-05-12T11:20:07.539Z,2.37
2023-05-12T11:22:35.955Z,2.27
2023-05-12T11:25:13.195Z,2.23
2023-05-12T11:27:49.581Z,2.40
2023-05-12T11:30:17.451Z,2.40
2023-05-12T11:32:47.694Z,2.37
2023-05-12T11:35:17.909Z,2.13
2023-05-12T11:37:46.832Z,2.50
2023-05-12T11:40:19.620Z,2.43
2023-05-12T11:42:52.235Z,2.37
2023-05-12T11:45:23.366Z,2.60
2023-05-12T11:47:51.448Z,2.53
2023-05-12T11:50:24.262Z,2.37
2023-05-12T11:52:53.723Z,2.17
2023-05-12T11:55:24.115Z,2.77
2023-05-12T11:58:04.553Z,2.33
2023-05-12T12:00:34.685Z,2.37
2023-05-12T12:03:10.735Z,2.40
2023-05-12T12:05:40.118Z,2.30
2023-05-12T12:08:10.413Z,2.30
2023-05-12T12:10:38.695Z,2.20
2023-05-12T12:13:09.368Z,2.30
2023-05-12T12:15:39.724Z,2.20
2023-05-12T12:18:07.789Z,2.30
2023-05-12T12:20:37.773Z,2.50
2023-05-12T12:23:05.696Z,2.40
2023-05-12T12:25:33.737Z,2.60
2023-05-12T12:28:01.576Z,2.40
2023-05-12T12:30:31.554Z,2.60
2023-05-12T12:32:59.404Z,2.27
2023-05-12T12:35:27.454Z,2.27
2023-05-12T12:37:55.484Z,2.38
2023-05-12T12:40:23.797Z,2.45
2023-05-12T12:42:51.678Z,2.10
2023-05-12T12:45:20.387Z,2.13
2023-05-12T12:47:54.348Z,2.00
2023-05-12T12:50:22.351Z,2.50
2023-05-12T12:52:51.155Z,2.30
2023-05-12T12:55:21.334Z,2.20
2023-05-12T12:57:50.025Z,2.30
2023-05-12T13:00:18.497Z,2.38
2023-05-12T13:02:46.627Z,2.65
2023-05-12T13:05:17.169Z,2.13
2023-05-12T13:07:44.800Z,2.30
2023-05-12T13:10:13.327Z,2.38
2023-05-12T13:12:41.308Z,2.30
2023-05-12T13:15:10.507Z,2.67
2023-05-12T13:17:38.661Z,3.97
2023-05-12T13:20:09.252Z,2.53
2023-05-12T13:22:38.435Z,2.33
2023-05-12T13:25:08.236Z,2.63
2023-05-12T13:27:37.013Z,2.38
2023-05-12T13:30:06.271Z,2.00
2023-05-12T13:32:34.438Z,2.30
2023-05-12T13:35:02.651Z,2.03
2023-05-12T13:37:30.629Z,2.20
2023-05-12T13:40:00.433Z,2.30
2023-05-12T13:42:28.079Z,2.20
2023-05-12T13:44:56.141Z,2.13
2023-05-12T13:47:27.044Z,2.50
2023-05-12T13:49:56.595Z,2.00
2023-05-12T13:52:24.813Z,2.17
2023-05-12T13:54:52.555Z,2.30
2023-05-12T13:57:22.933Z,2.28
2023-05-12T13:59:51.997Z,2.20
2023-05-12T14:02:20.155Z,2.10
2023-05-12T14:04:49.090Z,2.17
2023-05-12T14:07:19.232Z,2.10
2023-05-12T14:09:46.952Z,2.50
2023-05-12T14:12:15.023Z,2.10
2023-05-12T14:14:49.540Z,1.70
2023-05-12T14:17:18.781Z,2.20
2023-05-12T14:19:46.952Z,2.15
2023-05-12T14:22:25.419Z,2.15
2023-05-12T14:24:55.773Z,2.15
2023-05-12T14:27:23.996Z,2.33
2023-05-12T14:29:53.261Z,2.20
2023-05-12T14:32:21.436Z,2.05
2023-05-12T14:34:49.419Z,2.03
2023-05-12T14:37:17.498Z,1.90
2023-05-12T14:39:45.456Z,2.05
2023-05-12T14:42:13.973Z,3.22
2023-05-12T14:44:42.409Z,2.10
2023-05-12T14:47:12.787Z,1.95
2023-05-12T14:49:42.919Z,2.13
2023-05-12T14:52:12.678Z,1.95
2023-05-12T14:54:40.458Z,2.20
2023-05-12T14:57:10.704Z,2.60
2023-05-12T14:59:38.704Z,2.60
2023-05-12T15:02:06.985Z,2.30
2023-05-12T15:04:36.296Z,2.55
2023-05-12T15:07:04.972Z,2.38
2023-05-12T15:09:33.460Z,2.70
2023-05-12T15:12:02.396Z,2.95
2023-05-12T15:14:30.052Z,2.60
2023-05-12T15:16:57.797Z,2.35
2023-05-12T15:19:25.810Z,2.30
2023-05-12T15:21:55.087Z,2.47
2023-05-12T15:24:22.912Z,2.75
2023-05-12T15:26:50.712Z,2.60
2023-05-12T15:29:19.938Z,2.40
2023-05-12T15:31:49.878Z,2.50
2023-05-12T15:34:18.121Z,2.60
2023-05-12T15:36:48.739Z,2.30
2023-05-12T15:39:19.518Z,2.70
2023-05-12T15:41:49.744Z,3.15
2023-05-12T15:44:18.157Z,3.40
2023-05-12T15:46:46.623Z,2.92
2023-05-12T15:49:14.583Z,3.00
2023-05-12T15:51:42.689Z,2.80
2023-05-12T15:54:10.624Z,3.40
2023-05-12T15:56:40.128Z,2.53
2023-05-12T15:59:08.029Z,3.08
2023-05-12T16:01:36.896Z,3.88
2023-05-12T16:04:05.484Z,3.15
2023-05-12T16:06:35.154Z,3.17
2023-05-12T16:09:05.200Z,2.85
2023-05-12T16:11:33.761Z,3.17
2023-05-12T16:14:03.674Z,2.58
2023-05-12T16:16:32.890Z,2.88
2023-05-12T16:19:01.041Z,2.63
2023-05-12T16:21:28.760Z,3.08
2023-05-12T16:23:56.579Z,2.70
2023-05-12T16:26:26.887Z,2.67
2023-05-12T16:28:54.662Z,2.60
2023-05-12T16:31:24.789Z,2.80
2023-05-12T16:33:52.870Z,2.88
2023-05-12T16:36:20.794Z,2.60
2023-05-12T16:38:48.564Z,2.75
2023-05-12T16:41:16.866Z,2.90
2023-05-12T16:43:44.728Z,3.50
2023-05-12T16:46:12.518Z,3.95
2023-05-12T16:48:42.027Z,4.63
2023-05-12T16:51:13.497Z,5.32
2023-05-12T16:53:42.126Z,5.47
2023-05-12T16:56:10.256Z,6.78
2023-05-12T16:58:38.212Z,8.10
2023-05-12T17:01:05.999Z,14.82
2023-05-12T17:03:35.166Z,12.30
2023-05-12T17:06:05.534Z,15.00
2023-05-12T17:08:35.722Z,16.90
2023-05-12T17:11:04.491Z,19.10
2023-05-12T17:13:32.228Z,25.83
2023-05-12T17:16:00.087Z,24.25
2023-05-12T17:18:27.984Z,21.52
2023-05-12T17:20:55.779Z,21.13
2023-05-12T17:23:25.096Z,17.33
2023-05-12T17:25:53.571Z,20.70
2023-05-12T17:28:22.124Z,19.63
2023-05-12T17:30:51.179Z,18.88
2023-05-12T17:33:19.020Z,19.92
2023-05-12T17:35:56.598Z,15.07
2023-05-12T17:38:36.567Z,16.55
2023-05-12T17:41:05.486Z,14.65
2023-05-12T17:43:33.478Z,12.38
2023-05-12T17:46:01.557Z,13.18
2023-05-12T17:48:33.966Z,17.25
2023-05-12T17:51:02.266Z,8.95
2023-05-12T17:53:31.151Z,8.85
2023-05-12T17:56:01.544Z,7.60
2023-05-12T17:58:29.819Z,6.75
2023-05-12T18:00:57.785Z,5.90
2023-05-12T18:03:25.748Z,39.13
2023-05-12T18:05:54.789Z,5.10
2023-05-12T18:08:22.762Z,4.00
2023-05-12T18:10:52.030Z,3.50
2023-05-12T18:13:21.218Z,2.92
2023-05-12T18:15:49.832Z,3.00
2023-05-12T18:18:19.766Z,2.60
2023-05-12T18:20:47.568Z,2.40
2023-05-12T18:23:15.306Z,2.50
2023-05-12T18:25:43.181Z,2.88
2023-05-12T18:28:10.949Z,2.30
2023-05-12T18:30:40.505Z,2.35
2023-05-12T18:33:08.535Z,2.25
2023-05-12T18:35:36.260Z,2.30
2023-05-12T18:38:05.184Z,2.22
2023-05-12T18:40:33.038Z,2.40
2023-05-12T18:43:02.309Z,2.33
2023-05-12T18:45:30.079Z,2.17
2023-05-12T18:47:59.470Z,2.60
2023-05-12T18:50:27.319Z,2.30
2023-05-12T18:52:55.073Z,2.40
2023-05-12T18:55:23.457Z,2.50
2023-05-12T18:57:53.317Z,2.15
2023-05-12T19:00:25.862Z,1.80
2023-05-12T19:02:53.787Z,2.10
2023-05-12T19:05:23.679Z,2.23
2023-05-12T19:07:51.974Z,1.97
2023-05-12T19:10:20.385Z,2.27
2023-05-12T19:12:50.046Z,2.40
2023-05-12T19:15:18.943Z,2.37
2023-05-12T19:17:47.229Z,1.90
2023-05-12T19:20:15.164Z,2.30
2023-05-12T19:22:45.295Z,2.27
2023-05-12T19:25:17.802Z,2.27
2023-05-12T19:27:47.468Z,1.97
2023-05-12T19:30:16.681Z,2.40
2023-05-12T19:32:46.205Z,2.20
2023-05-12T19:35:15.747Z,2.73
2023-05-12T19:37:45.309Z,2.00
2023-05-12T19:40:14.446Z,2.23
2023-05-12T19:42:42.298Z,2.27
2023-05-12T19:45:11.732Z,2.40
2023-05-12T19:47:39.821Z,2.37
2023-05-12T19:50:09.511Z,2.23
2023-05-12T19:52:37.417Z,2.50
2023-05-12T19:55:08.528Z,2.50
2023-05-12T19:57:38.303Z,2.17
2023-05-12T20:00:08.238Z,2.53
2023-05-12T20:02:37.600Z,2.47
2023-05-12T20:05:09.358Z,2.23
2023-05-12T20:07:37.085Z,2.50
2023-05-12T20:10:07.299Z,2.40
2023-05-12T20:12:35.130Z,2.33
2023-05-12T20:15:03.257Z,2.30
2023-05-12T20:17:30.969Z,2.70
2023-05-12T20:20:01.655Z,2.27
2023-05-12T20:22:29.588Z,2.60
2023-05-12T20:24:59.767Z,2.67
2023-05-12T20:27:29.159Z,2.77
2023-05-12T20:29:57.304Z,2.60
2023-05-12T20:32:25.255Z,2.60
2023-05-12T20:34:53.187Z,2.27
2023-05-12T20:37:21.407Z,2.43
2023-05-12T20:39:49.267Z,2.80
2023-05-12T20:42:17.705Z,2.63
2023-05-12T20:44:47.550Z,3.00
2023-05-12T20:47:15.327Z,2.80
2023-05-12T20:49:43.170Z,3.20
2023-05-12T20:52:10.948Z,2.63
2023-05-12T20:54:38.683Z,3.20
2023-05-12T20:57:07.110Z,2.93
2023-05-12T20:59:35.272Z,3.10
2023-05-12T21:02:04.747Z,2.93
2023-05-12T21:04:32.584Z,3.20
2023-05-12T21:07:00.242Z,2.97
2023-05-12T21:09:28.738Z,2.97
2023-05-12T21:11:57.158Z,3.13
2023-05-12T21:14:25.179Z,2.90
2023-05-12T21:16:53.195Z,3.20
2023-05-12T21:19:22.448Z,2.97
2023-05-12T21:21:50.799Z,3.20
2023-05-12T21:24:18.978Z,3.03
2023-05-12T21:26:46.808Z,2.97
2023-05-12T21:29:15.194Z,2.83
2023-05-12T21:31:42.877Z,2.67
2023-05-12T21:34:11.182Z,2.90
2023-05-12T21:36:41.348Z,2.93
2023-05-12T21:39:09.258Z,2.97
2023-05-12T21:41:38.509Z,3.17
2023-05-12T21:44:07.350Z,2.90
2023-05-12T21:46:37.982Z,3.00
2023-05-12T21:49:05.859Z,2.70
2023-05-12T21:51:34.132Z,3.00
2023-05-12T21:54:03.760Z,3.27
2023-05-12T21:56:31.576Z,2.77
2023-05-12T21:58:59.522Z,3.17
2023-05-12T22:01:27.279Z,3.00
2023-05-12T22:03:55.360Z,3.20
2023-05-12T22:06:23.174Z,2.80
2023-05-12T22:08:51.058Z,3.27
2023-05-12T22:11:21.155Z,3.10
2023-05-12T22:13:48.985Z,3.30
2023-05-12T22:16:16.990Z,2.80
2023-05-12T22:18:46.509Z,3.20
2023-05-12T22:21:14.247Z,2.90
2023-05-12T22:23:42.936Z,3.20
2023-05-12T22:26:12.222Z,3.40
2023-05-12T22:28:41.549Z,2.73
2023-05-12T22:31:10.284Z,2.97
2023-05-12T22:33:38.000Z,3.03
2023-05-12T22:36:06.212Z,2.87
2023-05-12T22:38:34.090Z,3.10
2023-05-12T22:41:02.121Z,3.50
2023-05-12T22:43:30.074Z,3.00
2023-05-12T22:45:59.302Z,3.30
2023-05-12T22:48:27.228Z,3.13
2023-05-12T22:50:55.174Z,2.47
2023-05-12T22:53:24.158Z,3.00
2023-05-12T22:55:52.230Z,3.03
2023-05-12T22:58:20.058Z,2.67
2023-05-12T23:00:48.244Z,2.70
2023-05-12T23:03:17.477Z,2.57
2023-05-12T23:05:45.842Z,2.53
2023-05-12T23:08:14.467Z,2.40
2023-05-12T23:10:43.786Z,2.80
2023-05-12T23:13:11.609Z,2.90
2023-05-12T23:15:39.276Z,2.80
2023-05-12T23:18:07.145Z,2.70
2023-05-12T23:20:36.384Z,2.50
2023-05-12T23:23:04.403Z,2.70
2023-05-12T23:25:32.764Z,2.40
2023-05-12T23:28:00.465Z,2.40
2023-05-12T23:30:31.820Z,2.67
2023-05-12T23:32:59.683Z,2.80
2023-05-12T23:35:27.892Z,2.90
2023-05-12T23:37:57.125Z,2.50
2023-05-12T23:40:26.035Z,2.60
2023-05-12T23:42:54.035Z,2.60
2023-05-12T23:45:22.057Z,2.30
2023-05-12T23:47:50.712Z,2.50
2023-05-12T23:50:19.396Z,2.60
2023-05-12T23:52:47.188Z,2.53
2023-05-12T23:55:16.868Z,2.60
2023-05-12T23:57:44.692Z,2.70
